Time;durP1;ratioP1;P1;durP2;ratioP2;P2;SDS_P1;SDS_P2;PMS_P1;PMS_P2;Temp;Humidity;BMP_temperature;BMP_pressure;BME280_temperature;BME280_humidity;BME280_pressure;Samples;Min_cycle;Max_cycle;Signal;HPM_P1;HPM_P2
2021/06/06 00:01:42;;;;;;;;;13.00;12.00;;;;;17.02;59.09;102092.22;5106062;27;45357;-56
2021/06/06 00:04:17;;;;;;;;;18.25;14.00;;;;;16.98;58.66;102082.53;5113715;27;45397;-57
2021/06/06 00:06:44;;;;;;;;;13.75;12.50;;;;;16.96;58.62;102087.00;5102961;27;45326;-56
2021/06/06 00:09:14;;;;;;;;;12.50;12.25;;;;;16.87;58.96;102072.97;5102752;27;45233;-55
2021/06/06 00:11:43;;;;;;;;;14.00;12.00;;;;;16.87;58.67;102075.63;5102502;27;45347;-56
2021/06/06 00:14:12;;;;;;;;;12.75;12.75;;;;;16.88;58.74;102084.47;5103095;27;45256;-57
2021/06/06 00:16:42;;;;;;;;;12.75;10.75;;;;;16.84;58.34;102088.97;5102465;27;45509;-55
2021/06/06 00:19:08;;;;;;;;;13.00;12.50;;;;;16.81;57.95;102083.69;5102871;27;46140;-57
2021/06/06 00:21:36;;;;;;;;;14.50;13.00;;;;;16.77;58.17;102083.81;5111826;27;45248;-58
2021/06/06 00:24:02;;;;;;;;;12.25;11.00;;;;;16.75;58.09;102091.78;5108557;27;45264;-57
2021/06/06 00:26:28;;;;;;;;;13.75;11.75;;;;;16.71;58.25;102087.44;5098155;27;45489;-57
2021/06/06 00:28:53;;;;;;;;;11.75;11.25;;;;;16.71;58.14;102087.44;5084288;27;46122;-56
2021/06/06 00:31:19;;;;;;;;;14.00;12.75;;;;;16.71;58.18;102090.97;5102725;27;45317;-56
2021/06/06 00:33:46;;;;;;;;;18.25;15.50;;;;;16.69;58.38;102086.59;5102874;27;45352;-56
2021/06/06 00:36:11;;;;;;;;;12.50;11.25;;;;;16.69;58.28;102091.88;5109667;27;45240;-56
2021/06/06 00:38:37;;;;;;;;;11.25;9.50;;;;;16.66;58.19;102084.84;5122939;27;46026;-56
2021/06/06 00:41:05;;;;;;;;;14.00;11.50;;;;;16.64;58.21;102084.03;5123064;27;45476;-57
2021/06/06 00:43:30;;;;;;;;;10.00;10.00;;;;;16.61;58.33;102073.47;5123120;27;45253;-57
2021/06/06 00:45:56;;;;;;;;;13.25;11.50;;;;;16.60;58.14;102077.00;5123364;27;45223;-55
2021/06/06 00:48:22;;;;;;;;;12.00;12.00;;;;;16.60;58.12;102078.81;5122928;27;46290;-55
2021/06/06 00:50:52;;;;;;;;;11.75;10.50;;;;;16.57;58.11;102075.28;5104578;27;45197;-56
2021/06/06 00:53:27;;;;;;;;;11.25;11.25;;;;;16.52;57.79;102074.50;5122774;27;45433;-56
2021/06/06 00:55:52;;;;;;;;;10.50;10.50;;;;;16.55;57.72;102076.22;5123249;27;45472;-56
2021/06/06 00:58:18;;;;;;;;;10.50;8.75;;;;;16.53;57.87;102076.25;5122620;27;46482;-55
2021/06/06 01:00:48;;;;;;;;;12.00;10.75;;;;;16.53;57.64;102078.03;5122187;27;45313;-56
2021/06/06 01:03:17;;;;;;;;;12.25;12.25;;;;;16.51;57.81;102075.41;5120387;27;45739;-55
2021/06/06 01:05:53;;;;;;;;;13.00;11.25;;;;;16.48;57.91;102066.66;5102036;27;45479;-56
2021/06/06 01:08:20;;;;;;;;;14.00;12.75;;;;;16.48;57.67;102067.50;5101848;27;46228;-56
2021/06/06 01:10:56;;;;;;;;;11.50;10.00;;;;;16.44;57.73;102068.47;5102063;27;45196;-56
2021/06/06 01:13:42;;;;;;;;;12.25;12.25;;;;;16.44;58.06;102067.56;5101895;27;45308;-56
2021/06/06 01:16:15;;;;;;;;;10.25;10.25;;;;;16.42;57.78;102065.81;5083481;27;45395;-56
2021/06/06 01:18:46;;;;;;;;;13.25;12.00;;;;;16.40;58.21;102069.41;5102057;27;46209;-56
2021/06/06 01:21:48;;;;;;;;;11.00;11.00;;;;;16.38;57.66;102065.94;5110756;27;45353;-55
2021/06/06 01:25:02;;;;;;;;;11.75;10.75;;;;;16.37;57.88;102072.13;5101659;27;45256;-56
2021/06/06 01:27:30;;;;;;;;;13.25;10.25;;;;;16.34;57.90;102064.19;5065564;27;45256;-56
2021/06/06 01:30:24;;;;;;;;;12.50;12.50;;;;;16.32;58.08;102061.59;5101722;27;46134;-55
2021/06/06 01:32:56;;;;;;;;;10.25;10.25;;;;;16.30;58.38;102060.75;5098811;27;45284;-54
2021/06/06 01:35:49;;;;;;;;;15.75;14.00;;;;;16.27;58.17;102055.50;5101664;27;45217;-55
2021/06/06 01:38:23;;;;;;;;;16.50;14.00;;;;;16.26;57.97;102064.34;5101578;27;45278;-55
2021/06/06 01:40:54;;;;;;;;;13.50;13.50;;;;;16.23;58.59;102059.97;5101371;27;46228;-55
2021/06/06 01:43:26;;;;;;;;;13.50;12.25;;;;;16.20;58.53;102062.69;5101286;27;45415;-55
2021/06/06 01:45:58;;;;;;;;;11.25;10.25;;;;;16.19;58.19;102060.06;5108703;27;45215;-55
2021/06/06 01:48:23;;;;;;;;;11.25;10.00;;;;;16.16;58.10;102062.75;5122095;27;45476;-54
2021/06/06 01:50:57;;;;;;;;;13.75;12.75;;;;;16.15;57.98;102061.00;5122065;27;45946;-56
2021/06/06 01:53:23;;;;;;;;;16.50;14.75;;;;;16.06;57.98;102051.41;5121829;27;45374;-55
2021/06/06 01:55:53;;;;;;;;;14.25;12.00;;;;;16.08;57.88;102063.75;5103570;27;45336;-54
2021/06/06 01:58:21;;;;;;;;;13.75;12.50;;;;;16.05;57.32;102057.59;5121694;27;45551;-54
2021/06/06 02:01:06;;;;;;;;;15.75;15.75;;;;;16.04;57.01;102056.75;5121767;27;46135;-53
2021/06/06 02:03:32;;;;;;;;;15.00;15.00;;;;;16.02;57.15;102052.38;5116202;27;45360;-54
2021/06/06 02:05:57;;;;;;;;;17.00;15.50;;;;;16.00;56.85;102048.84;5101231;27;45375;-55
2021/06/06 02:08:28;;;;;;;;;14.50;14.50;;;;;15.98;56.73;102048.03;5100910;27;45322;-54
2021/06/06 02:10:59;;;;;;;;;14.50;13.25;;;;;15.97;56.69;102044.47;5101247;27;45231;-54
2021/06/06 02:13:33;;;;;;;;;17.00;15.00;;;;;15.96;56.72;102045.41;5101764;27;45240;-54
2021/06/06 02:16:01;;;;;;;;;20.00;16.00;;;;;15.93;56.75;102038.34;5115997;27;45379;-55
2021/06/06 02:18:28;;;;;;;;;17.00;15.25;;;;;15.92;56.87;102036.63;5121541;27;45233;-53
2021/06/06 02:20:54;;;;;;;;;16.50;15.50;;;;;15.92;56.88;102030.44;5119564;27;47159;-52
2021/06/06 02:23:24;;;;;;;;;17.50;16.00;;;;;15.92;56.93;102031.31;5100648;27;45418;-55
2021/06/06 02:26:01;;;;;;;;;14.25;13.00;;;;;15.92;56.50;102025.13;5100941;27;45514;-52
2021/06/06 02:28:35;;;;;;;;;18.50;14.50;;;;;15.89;56.75;102023.41;5100732;27;45220;-54
2021/06/06 02:31:18;;;;;;;;;18.25;15.75;;;;;15.88;56.78;102012.84;5082306;27;45277;-55
2021/06/06 02:33:52;;;;;;;;;14.00;12.25;;;;;15.87;56.97;102019.94;5100694;27;45432;-53
2021/06/06 02:36:19;;;;;;;;;14.75;13.75;;;;;15.86;57.01;102020.81;5100978;27;45311;-54
2021/06/06 02:39:13;;;;;;;;;14.00;13.25;;;;;15.84;57.11;102022.59;5100502;27;45339;-51
2021/06/06 02:41:45;;;;;;;;;15.50;14.00;;;;;15.84;57.00;102019.09;5095336;27;46381;-54
2021/06/06 02:44:18;;;;;;;;;14.00;12.25;;;;;15.81;56.71;102014.69;5100451;27;45334;-53
2021/06/06 02:46:45;;;;;;;;;13.75;12.50;;;;;15.81;56.70;102016.44;5100814;27;45285;-52
2021/06/06 02:49:15;;;;;;;;;15.50;15.50;;;;;15.80;56.73;102012.03;5100568;27;45321;-54
2021/06/06 02:52:05;;;;;;;;;12.50;11.25;;;;;15.78;56.73;102009.41;5100347;27;46076;-54
2021/06/06 02:54:55;;;;;;;;;11.75;11.25;;;;;15.76;56.78;102008.59;5090375;27;45272;-54
2021/06/06 02:57:22;;;;;;;;;13.50;13.00;;;;;15.73;57.10;102004.19;5108359;27;45449;-54
2021/06/06 02:59:51;;;;;;;;;13.50;13.50;;;;;15.72;56.90;102004.22;5121196;27;45198;-55
2021/06/06 03:02:23;;;;;;;;;12.25;11.25;;;;;15.67;57.13;102004.31;5120777;27;46226;-54
2021/06/06 03:04:52;;;;;;;;;12.00;10.75;;;;;15.67;57.10;102008.72;5104444;27;45315;-54
2021/06/06 03:07:30;;;;;;;;;10.75;10.50;;;;;15.64;57.27;101998.16;5100315;27;45269;-54
2021/06/06 03:09:56;;;;;;;;;11.00;9.00;;;;;15.62;56.86;102002.59;5100220;27;45281;-54
2021/06/06 03:12:23;;;;;;;;;8.50;8.50;;;;;15.58;57.25;102000.03;5100054;27;46281;-52
2021/06/06 03:14:50;;;;;;;;;14.50;11.25;;;;;15.58;57.15;102001.78;5100236;27;45256;-53
2021/06/06 03:17:26;;;;;;;;;11.00;9.50;;;;;15.51;57.04;101987.75;5100210;27;45279;-52
2021/06/06 03:19:55;;;;;;;;;9.25;8.00;;;;;15.50;57.44;101991.28;5101603;27;45244;-53
2021/06/06 03:22:29;;;;;;;;;9.25;9.25;;;;;15.49;57.07;101999.28;5107271;27;45327;-54
2021/06/06 03:25:00;;;;;;;;;7.50;7.50;;;;;15.47;56.97;101995.75;5102227;27;46514;-52
2021/06/06 03:27:33;;;;;;;;;8.25;8.25;;;;;15.44;56.94;101997.56;5118575;27;45372;-54
2021/06/06 03:30:05;;;;;;;;;9.75;9.00;;;;;15.41;56.96;101994.97;5124397;27;45305;-53
2021/06/06 03:32:37;;;;;;;;;8.00;8.00;;;;;15.40;56.97;101994.97;5124162;27;46924;-53
2021/06/06 03:35:06;;;;;;;;;9.25;8.25;;;;;15.38;57.10;101995.00;5124120;27;45317;-50
2021/06/06 03:37:31;;;;;;;;;7.25;7.25;;;;;15.36;56.67;101993.28;5123957;27;45221;-54
2021/06/06 03:39:57;;;;;;;;;9.25;8.00;;;;;15.34;57.31;101984.47;5124190;27;45539;-54
2021/06/06 03:42:24;;;;;;;;;7.75;7.50;;;;;15.30;56.78;101988.06;5123736;27;46126;-52
2021/06/06 03:44:50;;;;;;;;;9.75;8.50;;;;;15.28;57.19;101994.25;5088517;27;45462;-53
2021/06/06 03:47:16;;;;;;;;;8.00;8.00;;;;;15.30;56.63;101998.66;5124092;27;45272;-52
2021/06/06 03:49:42;;;;;;;;;9.00;7.00;;;;;15.28;56.55;101996.03;5124132;27;45301;-53
2021/06/06 03:52:08;;;;;;;;;7.00;7.00;;;;;15.27;56.87;101995.16;5104922;27;45869;-54
2021/06/06 03:54:34;;;;;;;;;6.00;6.00;;;;;15.27;57.03;101983.69;5124026;27;45337;-53
2021/06/06 03:56:59;;;;;;;;;11.75;9.25;;;;;15.23;56.60;101982.88;5123849;27;45278;-53
2021/06/06 03:59:25;;;;;;;;;10.50;9.25;;;;;15.20;57.07;101972.28;5105510;27;45413;-51
2021/06/06 04:01:51;;;;;;;;;9.50;9.00;;;;;15.22;57.20;101983.75;5123560;27;45354;-55
2021/06/06 04:04:17;;;;;;;;;11.25;9.75;;;;;15.21;57.12;101983.78;5112070;27;45303;-52
2021/06/06 04:06:43;;;;;;;;;9.00;9.00;;;;;15.20;57.19;101990.84;5103058;27;45164;-55
2021/06/06 04:09:09;;;;;;;;;10.00;9.25;;;;;15.18;57.17;101984.69;5084704;27;45605;-53
2021/06/06 04:11:37;;;;;;;;;10.25;9.00;;;;;15.18;56.91;101983.81;5102803;27;45438;-53
2021/06/06 04:14:02;;;;;;;;;9.50;7.00;;;;;15.17;57.28;101982.06;5102990;27;45343;-54
2021/06/06 04:16:28;;;;;;;;;12.50;10.50;;;;;15.18;57.56;101990.00;5084455;27;45458;-54
2021/06/06 04:18:54;;;;;;;;;9.50;9.50;;;;;15.17;57.66;101990.00;5102983;27;45335;-55
2021/06/06 04:21:24;;;;;;;;;9.00;9.00;;;;;15.16;57.88;101985.63;5111416;27;46241;-54
2021/06/06 04:23:50;;;;;;;;;7.50;6.25;;;;;15.18;57.38;101994.41;5102689;27;45440;-54
2021/06/06 04:26:16;;;;;;;;;9.00;7.75;;;;;15.17;57.04;101997.94;5084344;27;45526;-52
2021/06/06 04:28:41;;;;;;;;;10.00;10.00;;;;;15.17;57.58;101996.19;5102562;27;45362;-53
2021/06/06 04:31:08;;;;;;;;;9.75;9.75;;;;;15.15;57.48;101994.44;5084333;27;48068;-53
2021/06/06 04:33:34;;;;;;;;;9.50;8.25;;;;;15.20;57.17;101996.13;5102598;27;45371;-53
2021/06/06 04:36:00;;;;;;;;;9.25;8.25;;;;;15.21;57.41;101997.03;5101520;27;45497;-51
2021/06/06 04:38:29;;;;;;;;;8.75;8.75;;;;;15.22;57.63;101997.00;5102409;27;45648;-53
2021/06/06 04:40:56;;;;;;;;;9.75;8.50;;;;;15.22;57.30;101991.69;5102443;27;45504;-54
2021/06/06 04:43:23;;;;;;;;;9.00;9.00;;;;;15.23;56.96;101993.44;5102365;27;45386;-53
2021/06/06 04:45:48;;;;;;;;;7.50;7.50;;;;;15.24;56.97;101992.56;5102535;27;45398;-54
2021/06/06 04:48:18;;;;;;;;;7.75;7.75;;;;;15.24;56.98;101994.31;5102496;27;45525;-52
2021/06/06 04:50:45;;;;;;;;;12.50;10.00;;;;;15.24;56.99;102000.50;5102246;27;46369;-54
2021/06/06 04:53:11;;;;;;;;;9.50;9.00;;;;;15.11;57.06;101972.44;5101979;27;45362;-54
2021/06/06 04:55:37;;;;;;;;;9.75;9.50;;;;;15.25;57.09;102002.22;5087667;27;45386;-53
2021/06/06 04:58:03;;;;;;;;;13.50;11.25;;;;;15.25;56.57;101989.00;5115771;27;45567;-54
2021/06/06 05:00:32;;;;;;;;;8.00;7.75;;;;;15.24;56.91;101986.38;5122919;27;45633;-54
2021/06/06 05:02:57;;;;;;;;;9.75;8.75;;;;;15.11;56.78;101962.72;5122199;27;45154;-54
2021/06/06 05:05:23;;;;;;;;;8.75;8.75;;;;;15.24;56.67;101989.91;5102401;27;45219;-51
2021/06/06 05:07:58;;;;;;;;;8.00;8.00;;;;;15.26;56.56;101995.19;5101912;27;45489;-54
2021/06/06 05:10:24;;;;;;;;;9.25;9.25;;;;;15.27;56.29;101989.84;5102029;27;46192;-54
2021/06/06 05:12:50;;;;;;;;;9.75;9.75;;;;;15.30;56.62;101982.78;5101705;27;45351;-53
2021/06/06 05:15:17;;;;;;;;;8.00;7.50;;;;;15.30;55.89;101990.72;5102221;27;45398;-53
2021/06/06 05:17:42;;;;;;;;;7.25;6.00;;;;;15.31;55.71;101985.41;5083602;27;45643;-53
2021/06/06 05:20:10;;;;;;;;;9.50;8.00;;;;;15.33;55.81;101988.03;5105604;27;46029;-50
2021/06/06 05:22:36;;;;;;;;;7.50;7.50;;;;;15.32;55.97;101973.91;5105958;27;45284;-54
2021/06/06 05:25:01;;;;;;;;;10.00;9.00;;;;;15.39;55.52;101991.44;5083740;27;45939;-53
2021/06/06 05:27:27;;;;;;;;;8.25;6.75;;;;;15.40;55.58;101984.38;5101668;27;45319;-54
2021/06/06 05:29:52;;;;;;;;;6.00;6.00;;;;;15.43;55.09;101993.16;5101629;27;46708;-51
2021/06/06 05:32:17;;;;;;;;;8.50;7.75;;;;;15.45;54.96;101982.53;5101614;27;45230;-51
2021/06/06 05:34:43;;;;;;;;;7.75;7.00;;;;;15.47;55.13;101985.16;5101970;27;45232;-52
2021/06/06 05:37:12;;;;;;;;;9.00;6.00;;;;;15.51;54.84;101985.09;5083230;27;45327;-51
2021/06/06 05:39:38;;;;;;;;;6.75;6.75;;;;;15.56;55.11;101993.00;5101513;27;46178;-54
2021/06/06 05:42:04;;;;;;;;;7.00;6.25;;;;;15.58;55.26;101994.72;5101164;27;45429;-50
2021/06/06 05:44:29;;;;;;;;;7.25;7.25;;;;;15.62;54.70;101986.72;5102099;27;45354;-52
2021/06/06 05:46:55;;;;;;;;;6.00;6.00;;;;;15.65;54.59;101991.97;5101067;27;45243;-54
2021/06/06 05:49:21;;;;;;;;;6.50;6.50;;;;;15.66;54.47;101991.94;5101609;27;46405;-53
2021/06/06 05:51:46;;;;;;;;;8.50;7.50;;;;;15.55;54.56;101973.56;5101183;27;45316;-51
2021/06/06 05:54:11;;;;;;;;;10.25;8.25;;;;;15.70;54.10;101996.28;5101676;27;45235;-52
2021/06/06 05:56:37;;;;;;;;;7.25;7.25;;;;;15.73;54.18;101998.00;5082987;27;45387;-53
2021/06/06 05:59:02;;;;;;;;;6.75;6.00;;;;;15.76;53.95;101997.97;5101403;27;45506;-53
2021/06/06 06:01:28;;;;;;;;;5.50;5.50;;;;;15.79;53.50;101995.28;5102620;27;45398;-53
2021/06/06 06:03:53;;;;;;;;;7.00;6.00;;;;;15.83;52.82;101999.66;5113835;27;45384;-51
2021/06/06 06:06:18;;;;;;;;;8.50;6.50;;;;;15.82;53.18;101986.44;5101041;27;45153;-53
2021/06/06 06:08:45;;;;;;;;;5.50;5.25;;;;;15.88;52.40;101995.16;5101123;27;45264;-52
2021/06/06 06:11:14;;;;;;;;;5.75;4.75;;;;;15.93;52.25;102009.19;5101077;27;45342;-52
2021/06/06 06:13:41;;;;;;;;;4.50;4.50;;;;;15.98;52.38;102000.31;5101084;27;45226;-52
2021/06/06 06:16:09;;;;;;;;;5.00;5.00;;;;;16.03;52.02;101995.81;5100673;27;45275;-50
2021/06/06 06:18:35;;;;;;;;;4.50;4.50;;;;;16.13;51.84;102002.69;5101090;27;45404;-50
2021/06/06 06:21:03;;;;;;;;;7.00;7.00;;;;;16.21;52.13;102003.44;5110056;27;45582;-49
2021/06/06 06:23:28;;;;;;;;;5.00;4.00;;;;;16.28;51.69;101987.41;5100898;27;45360;-53
2021/06/06 06:25:54;;;;;;;;;6.00;5.75;;;;;16.38;51.80;101997.81;5100885;27;45349;-53
2021/06/06 06:28:21;;;;;;;;;6.50;5.50;;;;;16.49;51.29;102002.94;5100756;27;46037;-52
2021/06/06 06:30:46;;;;;;;;;4.75;4.75;;;;;16.53;51.38;101996.66;5100863;27;45308;-53
2021/06/06 06:33:11;;;;;;;;;5.25;5.25;;;;;16.60;51.07;102000.06;5100914;27;45216;-53
2021/06/06 06:35:37;;;;;;;;;5.25;5.00;;;;;16.70;50.83;102014.03;5100890;27;45379;-53
2021/06/06 06:38:04;;;;;;;;;4.50;3.75;;;;;16.80;51.22;102004.09;5100529;27;46295;-52
2021/06/06 06:40:31;;;;;;;;;5.50;5.00;;;;;16.98;50.81;102011.72;5100621;27;45435;-53
2021/06/06 06:42:57;;;;;;;;;4.75;3.25;;;;;17.19;50.55;102012.16;5100590;27;45493;-49
2021/06/06 06:45:30;;;;;;;;;5.00;5.00;;;;;17.44;50.10;102014.28;5082362;27;46551;-51
2021/06/06 06:48:01;;;;;;;;;5.50;3.00;;;;;17.71;50.33;102010.97;5100471;27;46101;-54
2021/06/06 06:50:27;;;;;;;;;4.00;4.00;;;;;17.95;49.65;102007.78;5100619;27;45365;-53
2021/06/06 06:52:52;;;;;;;;;3.00;3.00;;;;;18.14;49.15;102011.72;5100568;27;45299;-52
2021/06/06 06:55:20;;;;;;;;;6.00;6.00;;;;;18.25;48.74;102006.13;5100387;27;45223;-51
2021/06/06 06:57:46;;;;;;;;;2.75;2.75;;;;;18.31;48.47;102005.09;5094127;27;47048;-53
2021/06/06 07:00:21;;;;;;;;;4.75;4.00;;;;;18.34;48.66;102013.88;5104245;27;45335;-52
2021/06/06 07:02:47;;;;;;;;;5.25;5.25;;;;;18.41;48.42;102014.56;5116917;27;45599;-52
2021/06/06 07:05:13;;;;;;;;;2.00;2.00;;;;;18.42;47.88;102011.00;5105125;27;45321;-51
2021/06/06 07:07:39;;;;;;;;;3.25;3.25;;;;;18.48;47.76;102013.50;5103855;27;46320;-51
2021/06/06 07:10:08;;;;;;;;;3.50;3.50;;;;;18.56;47.73;102015.06;5103928;27;45466;-51
2021/06/06 07:12:33;;;;;;;;;4.00;3.50;;;;;18.65;47.30;102015.69;5103985;27;45302;-50
2021/06/06 07:14:59;;;;;;;;;5.00;4.00;;;;;18.79;47.33;102012.66;5104008;27;45239;-53
2021/06/06 07:17:24;;;;;;;;;2.00;2.00;;;;;18.92;47.37;102010.53;5103831;27;45262;-51
2021/06/06 07:19:50;;;;;;;;;3.00;3.00;;;;;19.08;46.64;102016.28;5105031;27;45425;-51
2021/06/06 07:22:16;;;;;;;;;6.00;6.00;;;;;19.22;46.57;102012.31;5111812;27;45361;-53
2021/06/06 07:24:41;;;;;;;;;5.00;3.75;;;;;19.34;45.96;102014.59;5103654;27;45335;-52
2021/06/06 07:27:07;;;;;;;;;4.50;3.75;;;;;19.47;45.28;102015.97;5085429;27;45882;-49
2021/06/06 07:29:34;;;;;;;;;6.00;6.00;;;;;19.53;45.20;102006.03;5085311;27;45342;-53
2021/06/06 07:32:00;;;;;;;;;3.00;3.00;;;;;19.60;44.84;102016.47;5085495;27;45391;-50
2021/06/06 07:34:28;;;;;;;;;4.25;4.25;;;;;19.60;45.28;102013.78;5103430;27;45533;-49
2021/06/06 07:36:58;;;;;;;;;5.00;3.75;;;;;19.56;45.02;102009.50;5103485;27;45218;-48
2021/06/06 07:39:24;;;;;;;;;4.25;4.25;;;;;19.58;44.88;102012.94;5103475;27;45349;-52
2021/06/06 07:41:49;;;;;;;;;4.00;4.00;;;;;19.55;44.75;102015.72;5103407;27;45309;-49
2021/06/06 07:44:17;;;;;;;;;3.00;3.00;;;;;19.51;44.69;102006.09;5085209;27;45284;-49
2021/06/06 07:46:42;;;;;;;;;4.00;3.00;;;;;19.58;44.71;102010.28;5103408;27;46264;-51
2021/06/06 07:49:08;;;;;;;;;3.25;3.25;;;;;19.69;45.02;102015.28;5103388;27;45215;-49
2021/06/06 07:51:35;;;;;;;;;3.00;3.00;;;;;19.80;44.19;102013.16;5108809;27;45252;-52
2021/06/06 07:54:02;;;;;;;;;4.25;4.00;;;;;19.87;44.37;102016.50;5103434;27;45309;-52
2021/06/06 07:56:27;;;;;;;;;2.00;2.00;;;;;19.87;43.72;102005.84;5108222;27;47600;-48
2021/06/06 07:58:53;;;;;;;;;5.50;4.50;;;;;19.89;43.70;102022.66;5103412;27;45357;-47
2021/06/06 08:01:20;;;;;;;;;4.50;3.25;;;;;19.94;43.39;102019.84;5103520;27;45275;-52
2021/06/06 08:03:47;;;;;;;;;2.50;2.50;;;;;19.94;43.17;102017.19;5098331;27;45394;-53
2021/06/06 08:06:12;;;;;;;;;2.75;2.75;;;;;19.91;43.38;102017.28;5103079;27;46381;-51
2021/06/06 08:08:38;;;;;;;;;2.25;2.25;;;;;19.89;42.54;102024.47;5102893;27;45388;-51
2021/06/06 08:11:05;;;;;;;;;2.50;2.25;;;;;19.82;42.63;102010.41;5103370;27;45332;-50
2021/06/06 08:13:31;;;;;;;;;2.25;2.25;;;;;19.84;42.62;102015.75;5103065;27;45310;-52
2021/06/06 08:15:57;;;;;;;;;3.75;3.75;;;;;19.83;41.66;102012.19;5102868;27;46111;-51
2021/06/06 08:18:33;;;;;;;;;2.00;2.00;;;;;19.84;42.38;102011.28;5102807;27;45254;-53
2021/06/06 08:21:09;;;;;;;;;4.75;3.00;;;;;19.86;42.69;102012.13;5112067;27;45334;-51
2021/06/06 08:23:35;;;;;;;;;4.75;2.50;;;;;19.88;42.07;102004.06;5102815;27;45430;-49
2021/06/06 08:26:01;;;;;;;;;1.25;1.25;;;;;19.90;41.92;102008.41;5101403;27;47373;-51
2021/06/06 08:28:28;;;;;;;;;3.50;3.00;;;;;19.92;41.99;102011.91;5102749;27;45334;-51
2021/06/06 08:30:56;;;;;;;;;3.50;3.50;;;;;19.94;41.98;102011.84;5102904;27;45253;-51
2021/06/06 08:33:26;;;;;;;;;3.00;3.00;;;;;19.96;41.73;102007.31;5102645;27;45469;-54
2021/06/06 08:35:55;;;;;;;;;2.00;2.00;;;;;20.01;41.29;102004.50;5102457;27;46229;-55
2021/06/06 08:38:22;;;;;;;;;2.00;2.00;;;;;20.01;41.42;101994.69;5084137;27;45426;-55
2021/06/06 08:41:02;;;;;;;;;2.50;2.50;;;;;20.06;41.62;101995.44;5102573;27;45680;-54
2021/06/06 08:43:42;;;;;;;;;4.25;4.00;;;;;20.13;41.52;101994.28;5084459;27;45231;-51
2021/06/06 08:46:09;;;;;;;;;1.50;1.50;;;;;20.18;41.13;101995.94;5102650;27;45335;-54
2021/06/06 08:48:34;;;;;;;;;2.00;2.00;;;;;20.20;41.80;101994.97;5102544;27;45532;-53
2021/06/06 08:51:23;;;;;;;;;3.00;3.00;;;;;20.32;41.02;101998.97;5102699;27;45500;-52
2021/06/06 08:54:10;;;;;;;;;2.50;2.50;;;;;20.39;40.48;101992.50;5102199;27;45432;-54
2021/06/06 08:56:37;;;;;;;;;3.50;3.50;;;;;20.45;40.98;101994.97;5102074;27;46346;-52
2021/06/06 08:59:11;;;;;;;;;4.00;3.00;;;;;20.53;40.41;101996.50;5102514;27;45326;-54
2021/06/06 09:01:53;;;;;;;;;3.00;3.00;;;;;20.57;39.68;101993.63;5104882;27;45352;-55
2021/06/06 09:04:26;;;;;;;;;4.00;2.25;;;;;20.59;40.53;101991.78;5110938;27;45327;-53
2021/06/06 09:06:54;;;;;;;;;4.25;3.50;;;;;20.66;40.82;101997.75;5101778;27;47190;-53
2021/06/06 09:09:23;;;;;;;;;1.00;1.00;;;;;20.72;40.53;101994.91;5102215;27;45238;-52
2021/06/06 09:11:49;;;;;;;;;3.00;3.00;;;;;20.76;40.17;101988.50;5109611;27;45330;-53
2021/06/06 09:14:16;;;;;;;;;3.75;3.00;;;;;20.84;39.77;101987.34;5122924;27;45409;-54
2021/06/06 09:17:01;;;;;;;;;2.00;2.00;;;;;20.84;39.22;101990.03;5122726;27;45342;-53
2021/06/06 09:19:50;;;;;;;;;4.00;4.00;;;;;20.86;39.59;101988.19;5122448;27;45231;-53
2021/06/06 09:22:33;;;;;;;;;5.00;5.00;;;;;20.95;40.26;101985.16;5099817;27;45322;-53
2021/06/06 09:25:17;;;;;;;;;3.50;3.50;;;;;21.06;40.56;101982.94;5111345;27;45475;-54
2021/06/06 09:27:42;;;;;;;;;4.75;4.75;;;;;21.15;40.25;101980.84;5122343;27;45249;-51
2021/06/06 09:30:12;;;;;;;;;5.00;4.50;;;;;21.29;39.87;101981.16;5122623;27;45528;-52
2021/06/06 09:32:38;;;;;;;;;4.50;4.50;;;;;21.43;39.49;101986.84;5122533;27;45282;-54
2021/06/06 09:35:09;;;;;;;;;5.25;4.50;;;;;21.62;40.21;101991.44;5103978;27;45429;-53
2021/06/06 09:37:42;;;;;;;;;4.00;4.00;;;;;21.83;39.74;101965.59;5121953;27;45529;-51
2021/06/06 09:40:12;;;;;;;;;5.00;5.00;;;;;22.32;39.60;101989.38;5122242;27;45162;-52
2021/06/06 09:42:47;;;;;;;;;4.00;4.00;;;;;22.60;38.87;101982.81;5103650;27;45401;-53
2021/06/06 09:45:42;;;;;;;;;3.25;3.25;;;;;22.77;38.70;101990.09;5122144;27;45310;-57
2021/06/06 09:48:23;;;;;;;;;4.00;4.00;;;;;23.11;39.29;101998.38;5086082;27;46852;-51
2021/06/06 09:50:50;;;;;;;;;4.00;4.00;;;;;23.45;38.58;101992.28;5103610;27;45242;-54
2021/06/06 09:53:19;;;;;;;;;3.50;3.50;;;;;23.72;38.22;101999.91;5121818;27;45320;-50
2021/06/06 09:55:45;;;;;;;;;4.00;3.75;;;;;24.02;37.72;101994.84;5103488;27;45543;-54
2021/06/06 09:58:23;;;;;;;;;4.25;4.25;;;;;24.42;36.74;101993.72;5121833;27;46376;-54
2021/06/06 10:00:52;;;;;;;;;4.25;4.25;;;;;24.88;36.33;101995.75;5121986;27;45223;-53
2021/06/06 10:03:30;;;;;;;;;4.50;4.25;;;;;25.24;35.66;101992.81;5118909;27;45304;-50
2021/06/06 10:06:14;;;;;;;;;4.75;3.00;;;;;25.76;36.00;101988.09;5101414;27;45251;-53
2021/06/06 10:08:42;;;;;;;;;4.00;4.00;;;;;26.23;34.57;101991.63;5108906;27;45518;-55
2021/06/06 10:11:16;;;;;;;;;5.00;4.50;;;;;26.57;34.43;101997.63;5121836;27;45363;-54
2021/06/06 10:13:51;;;;;;;;;3.25;3.25;;;;;26.84;33.88;101992.38;5121772;27;45338;-54
2021/06/06 10:16:21;;;;;;;;;6.00;4.00;;;;;27.10;33.66;101989.81;5121437;27;45547;-53
2021/06/06 10:18:55;;;;;;;;;5.00;4.00;;;;;27.29;32.95;101991.31;5121778;27;45314;-53
2021/06/06 10:21:26;;;;;;;;;5.00;3.25;;;;;27.48;32.67;101991.84;5116400;27;45284;-53
2021/06/06 10:23:55;;;;;;;;;3.75;3.75;;;;;27.70;32.57;101993.13;5100965;27;45463;-55
2021/06/06 10:26:39;;;;;;;;;5.00;5.00;;;;;27.93;31.79;101993.41;5100802;27;46708;-53
2021/06/06 10:29:30;;;;;;;;;3.50;3.50;;;;;28.07;32.14;101998.75;5100655;27;45410;-53
2021/06/06 10:32:14;;;;;;;;;5.00;5.00;;;;;28.28;31.66;101984.72;5053126;27;45265;-53
2021/06/06 10:35:04;;;;;;;;;6.25;5.25;;;;;28.36;31.49;101988.63;5108022;27;45386;-51
2021/06/06 10:37:30;;;;;;;;;4.25;4.25;;;;;28.44;30.84;101984.50;5102116;27;45635;-54
2021/06/06 10:39:59;;;;;;;;;4.75;4.75;;;;;28.54;30.48;101990.97;5121581;27;45394;-53
2021/06/06 10:42:44;;;;;;;;;23.25;23.00;;;;;28.91;31.05;101987.50;5115104;27;45446;-54
2021/06/06 10:45:38;;;;;;;;;6.75;6.75;;;;;29.71;30.22;101987.00;5120806;27;45557;-53
2021/06/06 10:48:22;;;;;;;;;5.50;5.00;;;;;30.42;29.40;101988.78;5073538;27;45573;-53
2021/06/06 10:50:51;;;;;;;;;4.50;4.00;;;;;31.74;29.27;101985.28;5105186;27;45492;-53
2021/06/06 10:53:21;;;;;;;;;4.75;4.75;;;;;34.04;27.55;101987.50;5104423;27;45235;-54
2021/06/06 10:56:04;;;;;;;;;3.00;3.00;;;;;36.97;25.63;101988.09;5100665;27;45407;-54
2021/06/06 10:58:36;;;;;;;;;5.25;5.25;;;;;37.06;23.08;102000.81;5081923;27;45297;-52
2021/06/06 11:01:22;;;;;;;;;6.25;5.25;;;;;36.27;23.25;101985.34;5081910;27;47015;-52
2021/06/06 11:04:05;;;;;;;;;3.50;2.50;;;;;36.33;23.67;101993.94;5100459;27;45416;-51
2021/06/06 11:06:34;;;;;;;;;5.75;5.25;;;;;37.07;22.79;101988.81;5100247;27;45160;-52
2021/06/06 11:09:02;;;;;;;;;4.75;4.75;;;;;39.11;21.65;101987.84;5100155;27;45505;-52
2021/06/06 11:11:37;;;;;;;;;7.25;5.00;;;;;43.74;20.25;101975.84;5099985;27;46315;-52
2021/06/06 11:14:08;;;;;;;;;4.00;4.00;;;;;48.48;17.13;101966.50;5100385;27;45353;-53
2021/06/06 11:16:40;;;;;;;;;4.00;4.00;;;;;52.07;14.19;101961.22;5081672;27;45249;-53
2021/06/06 11:19:25;;;;;;;;;4.00;4.00;;;;;53.35;12.27;101959.78;5100045;27;45327;-52
2021/06/06 11:21:52;;;;;;;;;4.25;3.75;;;;;50.07;12.04;101954.41;5107938;27;45375;-54
2021/06/06 11:24:32;;;;;;;;;6.50;6.00;;;;;46.36;13.89;101940.97;5100113;27;45331;-52
2021/06/06 11:27:16;;;;;;;;;5.75;5.00;;;;;43.64;14.63;101940.31;5100148;27;45321;-50
2021/06/06 11:29:53;;;;;;;;;4.50;3.75;;;;;41.43;16.22;101936.59;5100119;27;45469;-50
2021/06/06 11:32:52;;;;;;;;;6.50;5.00;;;;;39.78;17.03;101930.50;5100028;27;45256;-48
2021/06/06 11:35:27;;;;;;;;;16.00;14.75;;;;;38.33;17.98;101926.47;5099892;27;45291;-48